Airfield :
LOGIN :

Register | Disclaimer

   EN    FR    IT 

 










Legend :    VFR   Marginal VFR   IFR   Intensive IFR   Very Intensive IFR
Visi :
Ceiling :
>= 8 km
>= 3000ft
5 to 8 km
1000 to 3000 ft
1500m to 5 km
500 to 1000 ft
800 to 1500m
200 to 500 ft
< 800m
< 200 ft
Symbols :   Thunderstorms  Fog  Heavy snow  Heavy precipitations  Wind > 20 kt
SIGMETs :     Misc.  Thunderstorms  Icing  Turbulence  Mountain Waves  Volcanic Ashes







- Airport Elevation : 82 ft
- IATA code : ALG


DAAG - Alger Houari Boumedienne

CURRENT METAR :
  • 201730Z 03010KT 9999 SCT026TCU 29/21 Q1016

EXPIRED METARs :
  • 201700Z 03010KT 360V060 9999 SCT026TCU 29/21 Q1016
  • 201630Z 05010KT 360V090 9999 SCT026TCU 29/21 Q1016
  • 201600Z 02011KT 340V060 9999 FEW026TCU 30/20 Q1016
  • 201530Z 03012KT 340V050 9999 FEW026TCU 30/21 Q1016
  • 201500Z 02012KT 340V040 9999 FEW026TCU 30/21 Q1016

TAF TAF DAAG
Valid from the 20 at 18:00 until the 21 at 18:00 UTC


201700Z 2018/2118 02010KT 9999 SCT026TCU SCT100
PROB30
TEMPO 2018/2023 FEW026TCU FEW030CB
BECMG 2021/2024 14006KT
BECMG 2110/2113 04010KT
No reported NOTAMs for that airfield.
1 SIGMET reported for the Alger FIR (DAAA) :
 
Embedded thunderstorms
DAAA SIGMET 5 VALID 201630/201900 DAMM
DAAA ALGER FIR EMBD TS FCST W OF LINE N3355 E00040 - N3055 E00040 - TOP FL360 MOV E INTSF=



MET'MAP, your aeronautical weather chart ! - Copyright ORBIFLY December 2007 - Disclaimer

ORBIFLY MET'MAP TEAM :

Programming & Development : Alexandra Zaïnal
Concept & Development : Baudouin d'Aumeries
Co-Development & Prog : Marc-Olivier Méhu
Technical & hardware support : Manuel Goepfert

Contact : metmap@orbifly.com




SOURCES & CREDITS :

   NOAA